createdAt,value
2019-05-02T00:00:10.336Z,9.54
2019-05-02T00:01:10.311Z,9.48
2019-05-02T00:03:04.484Z,9.51
2019-05-02T00:04:03.223Z,9.51
2019-05-02T00:05:56.137Z,9.60
2019-05-02T00:06:56.135Z,9.56
2019-05-02T00:08:49.038Z,9.65
2019-05-02T00:09:50.437Z,9.53
2019-05-02T00:11:41.954Z,9.54
2019-05-02T00:12:41.958Z,9.51
2019-05-02T00:14:34.859Z,9.47
2019-05-02T00:15:38.309Z,9.51
2019-05-02T00:17:27.774Z,9.46
2019-05-02T00:18:32.039Z,9.48
2019-05-02T00:20:21.044Z,9.50
2019-05-02T00:21:20.687Z,9.48
2019-05-02T00:23:13.618Z,9.56
2019-05-02T00:24:13.597Z,9.58
2019-05-02T00:26:06.511Z,9.54
2019-05-02T00:27:06.513Z,9.57
2019-05-02T00:28:59.411Z,9.58
2019-05-02T00:30:00.403Z,9.54
2019-05-02T00:31:52.327Z,9.51
2019-05-02T00:32:53.103Z,9.54
2019-05-02T00:34:45.231Z,9.53
2019-05-02T00:35:46.085Z,9.51
2019-05-02T00:37:38.149Z,9.60
2019-05-02T00:38:39.754Z,9.56
2019-05-02T00:40:31.055Z,9.51
2019-05-02T00:41:33.130Z,9.58
2019-05-02T00:43:23.971Z,9.46
2019-05-02T00:44:23.975Z,9.46
2019-05-02T00:46:16.881Z,9.47
2019-05-02T00:47:16.886Z,9.51
2019-05-02T00:49:09.786Z,9.56
2019-05-02T00:50:11.293Z,9.54
2019-05-02T00:52:03.187Z,9.54
2019-05-02T00:53:06.907Z,9.46
2019-05-02T00:54:58.685Z,9.48
2019-05-02T00:55:55.614Z,9.46
2019-05-02T00:57:50.989Z,9.40
2019-05-02T00:58:48.527Z,9.40
2019-05-02T01:00:41.427Z,9.43
2019-05-02T01:01:41.453Z,9.40
2019-05-02T01:03:34.350Z,9.43
2019-05-02T01:04:34.348Z,9.42
2019-05-02T01:06:27.256Z,9.36
2019-05-02T01:07:27.258Z,9.40
2019-05-02T01:09:20.163Z,9.36
2019-05-02T01:10:21.191Z,9.38
2019-05-02T01:12:25.159Z,9.33
2019-05-02T01:13:14.817Z,9.17
2019-05-02T01:15:08.481Z,9.24
2019-05-02T01:16:05.988Z,9.24
2019-05-02T01:18:01.168Z,9.28
2019-05-02T01:18:58.899Z,9.29
2019-05-02T01:20:51.799Z,9.32
2019-05-02T01:21:51.808Z,9.20
2019-05-02T01:23:44.713Z,9.24
2019-05-02T01:24:44.717Z,9.18
2019-05-02T01:26:37.622Z,9.14
2019-05-02T01:27:41.288Z,9.13
2019-05-02T01:29:31.775Z,9.11
2019-05-02T01:30:30.536Z,9.08
2019-05-02T01:32:25.159Z,9.04
2019-05-02T01:33:23.448Z,9.02
2019-05-02T01:35:16.349Z,9.01
2019-05-02T01:36:16.358Z,9.01
2019-05-02T01:38:09.265Z,9.02
2019-05-02T01:39:09.268Z,8.95
2019-05-02T01:41:02.170Z,8.94
2019-05-02T01:42:04.259Z,8.96
2019-05-02T01:43:59.965Z,8.94
2019-05-02T01:44:55.088Z,8.86
2019-05-02T01:46:48.002Z,8.89
2019-05-02T01:47:47.996Z,8.91
2019-05-02T01:49:40.898Z,8.87
2019-05-02T01:50:40.911Z,8.87
2019-05-02T01:52:33.814Z,8.89
2019-05-02T01:53:34.639Z,8.98
2019-05-02T01:55:26.718Z,8.98
2019-05-02T01:56:28.556Z,9.01
2019-05-02T01:58:20.855Z,8.99
2019-05-02T01:59:19.638Z,8.96
2019-05-02T02:01:16.259Z,9.02
2019-05-02T02:02:12.550Z,9.02
2019-05-02T02:04:05.456Z,9.14
2019-05-02T02:05:05.455Z,9.15
2019-05-02T02:06:58.360Z,9.15
2019-05-02T02:07:58.368Z,9.15
2019-05-02T02:09:51.276Z,9.23
2019-05-02T02:10:56.108Z,9.23
2019-05-02T02:13:02.709Z,9.17
2019-05-02T02:13:44.190Z,9.23
2019-05-02T02:15:37.091Z,9.33
2019-05-02T02:16:39.338Z,9.28
2019-05-02T02:18:30.010Z,9.29
2019-05-02T02:19:30.013Z,9.26
2019-05-02T02:21:25.685Z,9.11
2019-05-02T02:22:22.923Z,9.13
2019-05-02T02:24:15.833Z,8.94
2019-05-02T02:25:15.833Z,9.04
2019-05-02T02:27:08.736Z,9.08
2019-05-02T02:28:08.746Z,9.02
2019-05-02T02:30:01.654Z,9.10
2019-05-02T02:31:04.798Z,9.08
2019-05-02T02:33:00.551Z,9.08
2019-05-02T02:33:54.566Z,9.10
2019-05-02T02:35:50.358Z,9.14
2019-05-02T02:36:47.476Z,9.14
2019-05-02T02:38:40.385Z,9.13
2019-05-02T02:39:40.387Z,9.11
2019-05-02T02:41:33.297Z,9.15
2019-05-02T02:42:34.172Z,9.15
2019-05-02T02:44:26.211Z,9.14
2019-05-02T02:45:26.208Z,9.24
2019-05-02T02:47:20.904Z,9.20
2019-05-02T02:48:19.122Z,9.29
2019-05-02T02:50:12.030Z,9.20
2019-05-02T02:51:22.659Z,9.24
2019-05-02T02:53:04.946Z,9.23
2019-05-02T02:54:05.808Z,9.24
2019-05-02T02:56:02.063Z,9.42
2019-05-02T02:56:57.854Z,9.39
2019-05-02T02:58:50.772Z,9.32
2019-05-02T02:59:50.765Z,9.33
2019-05-02T03:01:43.672Z,9.35
2019-05-02T03:02:48.649Z,9.36
2019-05-02T03:04:36.590Z,9.39
2019-05-02T03:05:36.592Z,9.40
2019-05-02T03:07:29.495Z,9.40
2019-05-02T03:08:29.504Z,9.43
2019-05-02T03:10:22.464Z,9.36
2019-05-02T03:11:23.496Z,9.42
2019-05-02T03:13:21.779Z,9.43
2019-05-02T03:14:15.375Z,9.53
2019-05-02T03:16:09.403Z,9.48
2019-05-02T03:17:08.287Z,9.54
2019-05-02T03:19:01.196Z,9.48
2019-05-02T03:20:03.740Z,9.71
2019-05-02T03:22:00.355Z,9.51
2019-05-02T03:22:54.133Z,9.57
2019-05-02T03:24:47.021Z,9.50
2019-05-02T03:25:50.826Z,9.60
2019-05-02T03:27:40.481Z,9.66
2019-05-02T03:28:39.937Z,9.61
2019-05-02T03:30:37.185Z,9.66
2019-05-02T03:31:33.388Z,9.64
2019-05-02T03:33:26.245Z,9.61
2019-05-02T03:34:44.940Z,9.65
2019-05-02T03:36:29.416Z,9.60
2019-05-02T03:37:19.180Z,9.66
2019-05-02T03:39:14.790Z,9.65
2019-05-02T03:40:12.068Z,9.74
2019-05-02T03:42:05.205Z,9.66
2019-05-02T03:43:04.991Z,9.65
2019-05-02T03:45:04.047Z,9.78
2019-05-02T03:45:57.898Z,9.76
2019-05-02T03:47:50.799Z,9.90
2019-05-02T03:48:50.812Z,9.78
2019-05-02T03:50:43.718Z,9.81
2019-05-02T03:51:43.722Z,9.76
2019-05-02T03:53:36.627Z,9.76
2019-05-02T03:54:49.034Z,9.65
2019-05-02T03:56:29.534Z,9.68
2019-05-02T03:57:33.164Z,9.58
2019-05-02T03:59:22.467Z,9.64
2019-05-02T04:00:24.337Z,9.61
2019-05-02T04:02:20.427Z,9.76
2019-05-02T04:03:15.371Z,9.86
2019-05-02T04:05:08.276Z,9.84
2019-05-02T04:06:13.985Z,9.93
2019-05-02T04:08:01.208Z,9.90
2019-05-02T04:09:02.022Z,9.91
2019-05-02T04:10:59.607Z,9.90
2019-05-02T04:11:54.105Z,9.96
2019-05-02T04:13:47.039Z,10.05
2019-05-02T04:14:47.016Z,10.05
2019-05-02T04:16:39.920Z,10.05
2019-05-02T04:17:39.929Z,10.14
2019-05-02T04:19:35.016Z,10.02
2019-05-02T04:20:32.841Z,10.08
2019-05-02T04:22:25.744Z,10.22
2019-05-02T04:23:27.629Z,10.17
2019-05-02T04:25:18.664Z,10.25
2019-05-02T04:26:18.668Z,10.23
2019-05-02T04:28:14.218Z,10.17
2019-05-02T04:29:11.580Z,10.27
2019-05-02T04:31:04.489Z,10.26
2019-05-02T04:32:12.281Z,10.23
2019-05-02T04:33:57.414Z,10.33
2019-05-02T04:34:57.991Z,10.27
2019-05-02T04:37:00.151Z,10.32
2019-05-02T04:37:50.334Z,10.29
2019-05-02T04:39:43.245Z,10.30
2019-05-02T04:40:46.397Z,10.40
2019-05-02T04:42:39.156Z,10.34
2019-05-02T04:43:40.751Z,10.41
2019-05-02T04:45:38.443Z,10.38
2019-05-02T04:46:31.224Z,10.45
2019-05-02T04:48:21.989Z,10.36
2019-05-02T04:49:32.864Z,10.36
2019-05-02T04:51:17.460Z,10.42
2019-05-02T04:52:18.240Z,10.40
2019-05-02T04:54:09.221Z,10.44
2019-05-02T04:55:19.881Z,10.42
2019-05-02T04:57:02.312Z,10.51
2019-05-02T04:58:01.803Z,10.51
2019-05-02T05:00:02.521Z,10.53
2019-05-02T05:00:58.051Z,10.60
2019-05-02T05:02:48.471Z,10.47
2019-05-02T05:03:49.178Z,10.64
2019-05-02T05:05:40.348Z,10.55
2019-05-02T05:06:40.901Z,10.68
2019-05-02T05:08:32.371Z,10.64
2019-05-02T05:09:32.385Z,10.63
2019-05-02T05:11:27.343Z,10.70
2019-05-02T05:12:25.292Z,10.79
2019-05-02T05:14:18.196Z,10.71
2019-05-02T05:15:33.863Z,10.82
2019-05-02T05:17:11.191Z,10.78
2019-05-02T05:18:14.425Z,10.78
2019-05-02T05:20:10.677Z,10.78
2019-05-02T05:21:04.032Z,10.89
2019-05-02T05:22:58.110Z,10.86
2019-05-02T05:24:01.171Z,10.89
2019-05-02T05:25:50.619Z,10.88
2019-05-02T05:26:49.860Z,10.91
2019-05-02T05:28:44.335Z,10.94
2019-05-02T05:29:45.792Z,10.96
2019-05-02T05:31:36.186Z,11.04
2019-05-02T05:32:37.498Z,10.94
2019-05-02T05:34:32.649Z,11.07
2019-05-02T05:35:28.607Z,11.09
2019-05-02T05:37:21.512Z,11.15
2019-05-02T05:38:23.041Z,11.11
2019-05-02T05:40:14.434Z,11.19
2019-05-02T05:41:17.622Z,11.18
2019-05-02T05:43:14.142Z,11.21
2019-05-02T05:44:07.758Z,11.06
2019-05-02T05:46:09.272Z,11.19
2019-05-02T05:47:00.273Z,11.21
2019-05-02T05:48:53.175Z,11.24
2019-05-02T05:49:57.582Z,11.25
2019-05-02T05:51:47.712Z,11.21
2019-05-02T05:52:47.286Z,11.33
2019-05-02T05:54:41.962Z,11.39
2019-05-02T05:55:39.017Z,11.21
2019-05-02T05:57:31.922Z,11.21
2019-05-02T05:58:31.933Z,11.24
2019-05-02T06:00:24.843Z,11.37
2019-05-02T06:01:26.217Z,11.25
2019-05-02T06:03:18.020Z,11.37
2019-05-02T06:04:19.398Z,11.43
2019-05-02T06:06:14.706Z,11.36
2019-05-02T06:07:10.681Z,11.47
2019-05-02T06:09:03.588Z,11.42
2019-05-02T06:10:07.769Z,11.47
2019-05-02T06:11:56.695Z,11.46
2019-05-02T06:12:56.511Z,11.46
2019-05-02T06:14:49.478Z,11.42
2019-05-02T06:16:01.586Z,11.44
2019-05-02T06:17:42.335Z,11.33
2019-05-02T06:18:43.688Z,11.44
2019-05-02T06:20:35.259Z,11.51
2019-05-02T06:21:35.260Z,11.44
2019-05-02T06:23:30.981Z,11.43
2019-05-02T06:24:28.180Z,11.49
2019-05-02T06:26:21.093Z,11.46
2019-05-02T06:27:26.024Z,11.43
2019-05-02T06:29:18.661Z,11.40
2019-05-02T06:30:14.012Z,11.36
2019-05-02T06:32:06.926Z,11.49
2019-05-02T06:33:06.929Z,11.33
2019-05-02T06:34:59.835Z,11.49
2019-05-02T06:36:01.304Z,11.33
2019-05-02T06:37:52.758Z,11.43
2019-05-02T06:38:56.739Z,11.37
2019-05-02T06:40:46.638Z,11.54
2019-05-02T06:41:45.680Z,11.44
2019-05-02T06:43:41.136Z,11.55
2019-05-02T06:44:38.598Z,11.46
2019-05-02T06:46:31.509Z,11.49
2019-05-02T06:47:31.512Z,11.57
2019-05-02T06:49:25.990Z,11.51
2019-05-02T06:50:24.875Z,11.52
2019-05-02T06:52:17.343Z,11.52
2019-05-02T06:53:17.348Z,11.58
2019-05-02T06:55:10.252Z,11.46
2019-05-02T06:56:12.787Z,11.58
2019-05-02T06:58:07.802Z,11.40
2019-05-02T06:59:03.182Z,11.47
2019-05-02T07:00:58.810Z,11.42
2019-05-02T07:01:57.557Z,11.52
2019-05-02T07:03:49.010Z,11.46
2019-05-02T07:04:49.014Z,11.52
2019-05-02T07:06:57.178Z,11.52
2019-05-02T07:07:41.989Z,11.44
2019-05-02T07:09:40.817Z,11.43
2019-05-02T07:10:44.581Z,11.39
2019-05-02T07:12:27.783Z,11.51
2019-05-02T07:13:27.789Z,11.44
2019-05-02T07:15:20.743Z,11.64
2019-05-02T07:16:36.780Z,11.61
2019-05-02T07:18:13.619Z,11.67
2019-05-02T07:19:16.388Z,11.57
2019-05-02T07:21:06.557Z,11.52
2019-05-02T07:22:06.551Z,11.40
2019-05-02T07:23:59.453Z,11.47
2019-05-02T07:25:02.042Z,11.39
2019-05-02T07:26:56.867Z,11.49
2019-05-02T07:27:52.374Z,11.40
2019-05-02T07:29:45.344Z,11.44
2019-05-02T07:30:45.298Z,11.47
2019-05-02T07:32:38.213Z,11.58
2019-05-02T07:33:38.797Z,11.52
2019-05-02T07:35:31.116Z,11.67
2019-05-02T07:36:36.168Z,11.60
2019-05-02T07:38:25.701Z,11.73
2019-05-02T07:39:24.051Z,11.80
2019-05-02T07:41:16.958Z,11.85
2019-05-02T07:42:16.971Z,11.95
2019-05-02T07:44:09.879Z,11.94
2019-05-02T07:45:10.730Z,12.12
2019-05-02T07:47:04.601Z,12.12
2019-05-02T07:48:02.799Z,12.12
2019-05-02T07:49:55.708Z,12.28
2019-05-02T07:50:56.202Z,12.29
2019-05-02T07:52:48.633Z,12.47
2019-05-02T07:53:49.743Z,12.57
2019-05-02T07:55:42.749Z,12.74
2019-05-02T07:56:41.560Z,12.75
2019-05-02T07:58:38.432Z,12.95
2019-05-02T07:59:34.480Z,13.01
2019-05-02T08:01:27.392Z,13.04
2019-05-02T08:02:27.429Z,12.96
2019-05-02T08:04:20.313Z,12.93
2019-05-02T08:05:21.665Z,13.01
2019-05-02T08:07:16.239Z,13.15
2019-05-02T08:08:13.241Z,13.17
2019-05-02T08:10:06.204Z,13.29
2019-05-02T08:11:06.166Z,13.33
2019-05-02T08:12:59.134Z,13.25
2019-05-02T08:14:00.611Z,13.15
2019-05-02T08:15:52.422Z,13.17
2019-05-02T08:17:04.708Z,13.32
2019-05-02T08:18:44.934Z,13.29
2019-05-02T08:19:44.940Z,13.48
2019-05-02T08:21:37.856Z,13.59
2019-05-02T08:22:37.863Z,13.57
2019-05-02T08:24:33.017Z,13.75
2019-05-02T08:25:30.786Z,13.92
2019-05-02T08:27:23.708Z,13.97
2019-05-02T08:28:23.714Z,14.00
2019-05-02T08:30:16.627Z,14.18
2019-05-02T08:31:18.886Z,14.29
2019-05-02T08:33:09.555Z,14.28
2019-05-02T08:34:14.635Z,14.35
2019-05-02T08:36:02.477Z,14.51
2019-05-02T08:37:03.092Z,14.57
2019-05-02T08:38:55.528Z,14.47
2019-05-02T08:39:55.416Z,14.43
2019-05-02T08:41:51.210Z,14.24
2019-05-02T08:42:48.342Z,14.37
2019-05-02T08:44:50.890Z,14.40
2019-05-02T08:45:41.269Z,14.54
2019-05-02T08:47:34.189Z,14.86
2019-05-02T08:48:36.367Z,15.13
2019-05-02T08:50:31.706Z,15.31
2019-05-02T08:51:27.122Z,15.35
2019-05-02T08:53:22.034Z,15.41
2019-05-02T08:54:20.050Z,15.38
2019-05-02T08:56:16.512Z,15.20
2019-05-02T08:57:13.050Z,15.06
2019-05-02T08:59:05.904Z,14.94
2019-05-02T09:00:05.908Z,14.91
2019-05-02T09:01:58.822Z,14.96
2019-05-02T09:03:02.512Z,15.11
2019-05-02T09:04:58.333Z,15.44
2019-05-02T09:05:51.758Z,15.57
2019-05-02T09:07:45.228Z,15.82
2019-05-02T09:08:46.133Z,16.01
2019-05-02T09:10:42.113Z,16.25
2019-05-02T09:11:37.616Z,16.39
2019-05-02T09:13:32.876Z,16.58
2019-05-02T09:14:32.181Z,16.71
2019-05-02T09:16:28.672Z,16.82
2019-05-02T09:17:35.138Z,16.66
2019-05-02T09:19:21.386Z,16.88
2019-05-02T09:20:20.559Z,16.97
2019-05-02T09:22:13.162Z,17.14
2019-05-02T09:23:09.335Z,17.25
2019-05-02T09:25:02.364Z,17.43
2019-05-02T09:26:02.702Z,17.66
2019-05-02T09:27:55.193Z,17.74
2019-05-02T09:28:56.215Z,17.77
2019-05-02T09:30:48.119Z,17.99
2019-05-02T09:31:48.134Z,18.03
2019-05-02T09:33:45.170Z,17.78
2019-05-02T09:34:42.381Z,17.89
2019-05-02T09:36:33.985Z,17.68
2019-05-02T09:37:34.002Z,17.59
2019-05-02T09:39:27.334Z,17.38
2019-05-02T09:40:26.938Z,17.28
2019-05-02T09:42:21.605Z,17.18
2019-05-02T09:43:19.867Z,17.07
2019-05-02T09:45:15.836Z,17.07
2019-05-02T09:46:16.464Z,16.88
2019-05-02T09:48:08.158Z,16.85
2019-05-02T09:49:11.876Z,16.94
2019-05-02T09:51:04.640Z,16.70
2019-05-02T09:52:00.627Z,16.58
2019-05-02T09:53:52.381Z,16.68
2019-05-02T09:54:51.902Z,16.75
2019-05-02T09:56:44.516Z,16.94
2019-05-02T09:57:44.532Z,17.14
2019-05-02T09:59:37.459Z,17.14
2019-05-02T10:00:37.468Z,17.23
2019-05-02T10:02:32.434Z,17.22
2019-05-02T10:03:31.925Z,17.56
2019-05-02T10:05:23.319Z,17.77
2019-05-02T10:06:23.327Z,17.95
2019-05-02T10:08:16.252Z,18.32
2019-05-02T10:09:18.768Z,18.30
2019-05-02T10:11:09.179Z,18.27
2019-05-02T10:12:09.194Z,18.02
2019-05-02T10:14:02.533Z,17.86
2019-05-02T10:15:02.410Z,17.86
2019-05-02T10:16:57.678Z,17.72
2019-05-02T10:18:07.887Z,17.74
2019-05-02T10:19:49.146Z,17.74
2019-05-02T10:20:47.987Z,17.70
2019-05-02T10:22:41.846Z,17.49
2019-05-02T10:23:42.742Z,17.49
2019-05-02T10:25:38.726Z,17.64
2019-05-02T10:26:33.853Z,17.81
2019-05-02T10:28:26.773Z,18.00
2019-05-02T10:29:28.480Z,18.05
2019-05-02T10:31:21.697Z,18.07
2019-05-02T10:32:19.721Z,17.95
2019-05-02T10:34:16.384Z,17.81
2019-05-02T10:35:12.991Z,17.97
2019-05-02T10:37:05.577Z,17.97
2019-05-02T10:38:09.525Z,18.15
2019-05-02T10:39:58.509Z,18.29
2019-05-02T10:41:01.843Z,18.37
2019-05-02T10:42:52.258Z,18.36
2019-05-02T10:43:55.854Z,18.50
2019-05-02T10:45:47.510Z,18.57
2019-05-02T10:46:44.387Z,18.66
2019-05-02T10:48:37.304Z,18.57
2019-05-02T10:49:37.323Z,18.58
2019-05-02T10:51:31.605Z,18.62
2019-05-02T10:52:34.027Z,18.70
2019-05-02T10:54:23.281Z,18.82
2019-05-02T10:55:24.275Z,18.88
2019-05-02T10:57:16.110Z,18.95
2019-05-02T10:58:16.126Z,18.88
2019-05-02T11:00:09.054Z,18.54
2019-05-02T11:01:09.061Z,18.55
2019-05-02T11:03:02.645Z,18.69
2019-05-02T11:04:02.161Z,18.67
2019-05-02T11:05:58.042Z,18.75
2019-05-02T11:06:56.723Z,18.81
2019-05-02T11:08:47.847Z,18.87
2019-05-02T11:09:47.861Z,18.87
2019-05-02T11:11:42.476Z,18.66
2019-05-02T11:12:46.211Z,18.65
2019-05-02T11:14:33.734Z,18.84
2019-05-02T11:15:33.738Z,18.76
2019-05-02T11:17:26.661Z,18.98
2019-05-02T11:18:39.556Z,19.10
2019-05-02T11:20:19.595Z,19.21
2019-05-02T11:21:19.606Z,19.21
2019-05-02T11:23:12.833Z,19.02
2019-05-02T11:24:14.384Z,19.21
2019-05-02T11:26:05.462Z,18.91
2019-05-02T11:27:08.145Z,18.69
2019-05-02T11:28:58.394Z,18.37
2019-05-02T11:29:58.409Z,18.18
2019-05-02T11:31:52.097Z,18.41
2019-05-02T11:32:52.138Z,18.35
2019-05-02T11:34:44.273Z,18.33
2019-05-02T11:35:49.027Z,18.32
2019-05-02T11:37:37.211Z,18.12
2019-05-02T11:38:38.286Z,18.29
2019-05-02T11:40:32.060Z,18.54
2019-05-02T11:41:31.723Z,18.85
2019-05-02T11:43:23.066Z,19.14
2019-05-02T11:44:23.080Z,19.33
2019-05-02T11:46:16.023Z,19.46
2019-05-02T11:47:17.256Z,19.73
2019-05-02T11:49:08.935Z,19.37
2019-05-02T11:50:08.950Z,19.33
2019-05-02T11:52:04.533Z,19.04
2019-05-02T11:53:02.845Z,18.90
2019-05-02T11:54:54.833Z,18.94
2019-05-02T11:55:58.347Z,18.84
2019-05-02T11:57:47.773Z,18.62
2019-05-02T11:58:50.095Z,18.52
2019-05-02T12:00:48.033Z,18.65
2019-05-02T12:01:42.636Z,18.72
2019-05-02T12:03:36.886Z,18.92
2019-05-02T12:04:33.652Z,18.85
2019-05-02T12:06:26.574Z,19.16
2019-05-02T12:07:26.585Z,19.00
2019-05-02T12:09:19.502Z,18.70
2019-05-02T12:10:21.517Z,18.67
2019-05-02T12:12:15.374Z,18.75
2019-05-02T12:13:15.986Z,18.65
2019-05-02T12:15:05.377Z,18.98
2019-05-02T12:16:08.324Z,19.11
2019-05-02T12:17:58.317Z,19.25
2019-05-02T12:19:09.375Z,19.23
2019-05-02T12:20:51.992Z,19.14
2019-05-02T12:21:52.861Z,18.75
2019-05-02T12:23:44.201Z,18.73
2019-05-02T12:24:45.452Z,18.75
2019-05-02T12:26:37.120Z,18.84
2019-05-02T12:27:37.130Z,18.84
2019-05-02T12:29:30.061Z,18.98
2019-05-02T12:30:34.141Z,18.81
2019-05-02T12:32:22.991Z,18.75
2019-05-02T12:33:23.001Z,18.87
2019-05-02T12:35:15.920Z,19.18
2019-05-02T12:36:15.937Z,19.36
2019-05-02T12:38:08.863Z,19.31
2019-05-02T12:39:08.872Z,19.33
2019-05-02T12:41:02.698Z,19.21
2019-05-02T12:42:03.122Z,19.13
2019-05-02T12:43:54.718Z,18.88
2019-05-02T12:44:54.736Z,18.87
2019-05-02T12:46:47.659Z,18.75
2019-05-02T12:47:47.670Z,18.91
2019-05-02T12:49:42.362Z,18.81
2019-05-02T12:50:41.798Z,18.73
2019-05-02T12:52:33.526Z,18.80
2019-05-02T12:53:33.536Z,18.94
2019-05-02T12:55:26.454Z,19.19
2019-05-02T12:56:26.472Z,18.98
2019-05-02T12:58:19.390Z,19.22
2019-05-02T12:59:19.404Z,19.26
2019-05-02T13:01:12.376Z,18.99
2019-05-02T13:02:12.333Z,18.91
2019-05-02T13:04:05.264Z,18.63
2019-05-02T13:05:05.266Z,18.50
2019-05-02T13:06:58.188Z,18.42
2019-05-02T13:07:58.197Z,18.57
2019-05-02T13:09:52.801Z,18.66
2019-05-02T13:10:55.775Z,18.81
2019-05-02T13:12:44.049Z,18.91
2019-05-02T13:13:44.060Z,18.87
2019-05-02T13:15:36.978Z,18.62
2019-05-02T13:16:36.993Z,18.50
2019-05-02T13:18:34.612Z,18.50
2019-05-02T13:19:38.069Z,18.52
2019-05-02T13:21:23.481Z,18.48
2019-05-02T13:22:22.858Z,18.47
2019-05-02T13:24:16.627Z,18.50
2019-05-02T13:25:15.791Z,18.62
2019-05-02T13:27:08.715Z,18.84
2019-05-02T13:28:08.725Z,18.98
2019-05-02T13:30:03.372Z,19.23
2019-05-02T13:31:02.388Z,19.23
2019-05-02T13:32:57.824Z,19.43
2019-05-02T13:33:54.612Z,19.48
2019-05-02T13:35:47.527Z,19.50
2019-05-02T13:36:47.546Z,19.50
2019-05-02T13:38:42.272Z,19.50
2019-05-02T13:39:41.927Z,19.48
2019-05-02T13:41:33.411Z,19.31
2019-05-02T13:42:33.762Z,19.26
2019-05-02T13:44:28.952Z,19.22
2019-05-02T13:45:26.341Z,19.25
2019-05-02T13:47:19.278Z,19.14
2019-05-02T13:48:19.274Z,18.94
2019-05-02T13:50:12.963Z,18.81
2019-05-02T13:51:12.207Z,18.87
2019-05-02T13:53:05.140Z,18.58
2019-05-02T13:54:05.137Z,18.51
2019-05-02T13:55:58.059Z,18.25
2019-05-02T13:56:58.069Z,18.18
2019-05-02T13:58:51.853Z,17.99
2019-05-02T13:59:52.535Z,17.92
2019-05-02T14:01:43.911Z,17.72
2019-05-02T14:02:43.930Z,17.64
2019-05-02T14:04:36.847Z,17.63
2019-05-02T14:05:36.858Z,17.55
2019-05-02T14:07:29.782Z,17.55
2019-05-02T14:08:35.372Z,17.63
2019-05-02T14:10:22.829Z,17.64
2019-05-02T14:11:22.717Z,17.56
2019-05-02T14:13:15.635Z,17.56
2019-05-02T14:14:15.645Z,17.54
2019-05-02T14:16:08.557Z,17.59
2019-05-02T14:17:08.574Z,17.44
2019-05-02T14:19:03.013Z,17.38
2019-05-02T14:20:10.758Z,17.44
2019-05-02T14:21:54.414Z,17.23
2019-05-02T14:22:54.427Z,17.44
2019-05-02T14:24:47.344Z,17.33
2019-05-02T14:25:47.352Z,17.23
2019-05-02T14:27:42.026Z,17.28
2019-05-02T14:28:40.282Z,17.26
2019-05-02T14:30:39.908Z,17.21
2019-05-02T14:31:33.208Z,17.16
2019-05-02T14:33:26.127Z,16.64
2019-05-02T14:34:26.136Z,16.79
2019-05-02T14:36:19.045Z,16.58
2019-05-02T14:37:19.061Z,16.42
2019-05-02T14:39:12.105Z,16.23
2019-05-02T14:40:11.986Z,16.07
2019-05-02T14:42:04.898Z,15.87
2019-05-02T14:43:05.843Z,15.74
2019-05-02T14:45:09.105Z,15.65
2019-05-02T14:45:58.606Z,15.47
2019-05-02T14:47:57.266Z,15.38
2019-05-02T14:48:52.338Z,15.23
2019-05-02T14:50:45.713Z,15.10
2019-05-02T14:51:43.679Z,14.95
2019-05-02T14:53:36.594Z,14.91
2019-05-02T14:54:38.112Z,14.96
2019-05-02T14:56:29.509Z,14.92
2019-05-02T14:57:29.520Z,14.83
2019-05-02T14:59:22.843Z,14.80
2019-05-02T15:00:22.443Z,14.72
2019-05-02T15:02:15.360Z,14.78
2019-05-02T15:03:19.217Z,14.73
2019-05-02T15:05:08.277Z,14.54
2019-05-02T15:06:08.284Z,14.54
2019-05-02T15:08:05.185Z,14.61
2019-05-02T15:09:02.501Z,14.55
2019-05-02T15:10:56.594Z,14.51
2019-05-02T15:11:54.123Z,14.43
2019-05-02T15:13:47.039Z,14.42
2019-05-02T15:14:49.712Z,14.37
2019-05-02T15:16:43.201Z,14.37
2019-05-02T15:17:41.880Z,14.40
2019-05-02T15:19:33.256Z,14.37
2019-05-02T15:20:38.896Z,14.37
2019-05-02T15:22:27.606Z,14.27
2019-05-02T15:23:25.803Z,14.29
2019-05-02T15:25:18.718Z,14.39
2019-05-02T15:26:18.734Z,14.33
2019-05-02T15:28:13.090Z,14.37
2019-05-02T15:29:19.146Z,14.42
2019-05-02T15:31:05.045Z,14.37
2019-05-02T15:32:07.231Z,14.43
2019-05-02T15:34:01.570Z,14.20
2019-05-02T15:34:57.483Z,14.17
2019-05-02T15:36:50.391Z,14.03
2019-05-02T15:37:51.816Z,14.07
2019-05-02T15:40:49.920Z,14.21
2019-05-02T15:42:36.236Z,14.20
2019-05-02T15:43:39.351Z,14.22
2019-05-02T15:45:29.164Z,14.21
2019-05-02T15:46:29.169Z,14.17
2019-05-02T15:48:27.273Z,13.99
2019-05-02T15:49:22.254Z,14.04
2019-05-02T15:51:15.000Z,14.04
2019-05-02T15:52:18.869Z,14.15
2019-05-02T15:54:08.932Z,14.20
2019-05-02T15:55:07.934Z,14.17
2019-05-02T15:57:03.159Z,14.20
2019-05-02T15:58:02.474Z,14.02
2019-05-02T15:59:53.765Z,14.00
2019-05-02T16:00:56.631Z,13.89
2019-05-02T16:02:46.680Z,13.97
2019-05-02T16:03:46.692Z,13.91
2019-05-02T16:05:41.342Z,14.02
2019-05-02T16:06:41.761Z,13.89
2019-05-02T16:08:32.611Z,14.12
2019-05-02T16:09:32.980Z,14.02
2019-05-02T16:11:25.455Z,14.10
2019-05-02T16:12:27.019Z,14.14
2019-05-02T16:14:18.366Z,14.02
2019-05-02T16:15:22.243Z,14.15
2019-05-02T16:17:12.513Z,14.28
2019-05-02T16:18:12.764Z,14.20
2019-05-02T16:20:07.636Z,14.10
2019-05-02T16:21:07.657Z,14.22
2019-05-02T16:22:57.126Z,14.20
2019-05-02T16:23:57.138Z,14.27
2019-05-02T16:25:50.055Z,14.36
2019-05-02T16:26:50.060Z,14.39
2019-05-02T16:28:45.439Z,14.43
2019-05-02T16:29:42.980Z,14.40
2019-05-02T16:31:35.895Z,14.42
2019-05-02T16:32:37.812Z,14.39
2019-05-02T16:34:32.551Z,14.45
2019-05-02T16:35:28.826Z,14.35
2019-05-02T16:37:22.548Z,14.24
2019-05-02T16:38:22.277Z,14.09
2019-05-02T16:40:14.655Z,13.99
2019-05-02T16:41:14.664Z,13.99
2019-05-02T16:43:07.571Z,14.07
2019-05-02T16:44:07.583Z,13.91
2019-05-02T16:46:01.742Z,14.03
2019-05-02T16:47:02.194Z,14.07
2019-05-02T16:48:53.416Z,14.17
2019-05-02T16:49:56.437Z,14.22
2019-05-02T16:51:46.343Z,14.21
2019-05-02T16:52:47.428Z,14.24
2019-05-02T16:54:41.741Z,14.21
2019-05-02T16:55:39.275Z,14.20
2019-05-02T16:57:34.845Z,14.25
2019-05-02T16:58:33.666Z,14.29
2019-05-02T17:00:25.111Z,14.29
2019-05-02T17:01:27.469Z,14.27
2019-05-02T17:03:22.737Z,14.29
2019-05-02T17:04:18.037Z,14.36
2019-05-02T17:06:12.398Z,14.28
2019-05-02T17:07:11.625Z,14.18
2019-05-02T17:09:03.869Z,14.10
2019-05-02T17:10:08.302Z,14.06
2019-05-02T17:11:56.795Z,13.96
2019-05-02T17:13:00.117Z,14.00
2019-05-02T17:14:53.396Z,13.88
2019-05-02T17:15:49.723Z,13.81
2019-05-02T17:17:42.633Z,13.78
2019-05-02T17:18:43.417Z,13.75
2019-05-02T17:20:35.554Z,13.77
2019-05-02T17:21:52.422Z,13.87
2019-05-02T17:23:28.464Z,13.78
2019-05-02T17:24:28.478Z,13.78
2019-05-02T17:26:22.850Z,13.91
2019-05-02T17:27:24.548Z,13.84
2019-05-02T17:29:16.467Z,13.73
2019-05-02T17:30:14.313Z,13.91
2019-05-02T17:32:08.931Z,13.71
2019-05-02T17:33:11.714Z,13.73
2019-05-02T17:35:02.642Z,13.77
2019-05-02T17:36:02.091Z,13.77
2019-05-02T17:37:53.070Z,13.77
2019-05-02T17:38:54.502Z,13.66
2019-05-02T17:40:45.988Z,13.64
2019-05-02T17:41:45.994Z,13.60
2019-05-02T17:43:42.250Z,13.52
2019-05-02T17:44:41.402Z,13.60
2019-05-02T17:46:31.829Z,13.51
2019-05-02T17:47:36.205Z,13.63
2019-05-02T17:49:34.819Z,13.67
2019-05-02T17:50:24.752Z,13.73
2019-05-02T17:52:19.107Z,13.69
2019-05-02T17:53:17.673Z,13.78
2019-05-02T17:55:12.101Z,13.84
2019-05-02T17:56:13.089Z,13.91
2019-05-02T17:58:04.636Z,14.02
2019-05-02T17:59:03.526Z,14.02
2019-05-02T18:00:57.239Z,13.99
2019-05-02T18:01:56.430Z,14.00
2019-05-02T18:03:49.338Z,14.07
2019-05-02T18:04:52.120Z,14.02
2019-05-02T18:06:42.274Z,14.00
2019-05-02T18:07:42.270Z,13.97
2019-05-02T18:09:35.208Z,13.92
2019-05-02T18:10:35.205Z,13.95
2019-05-02T18:12:28.113Z,13.89
2019-05-02T18:13:29.281Z,13.87
2019-05-02T18:15:22.702Z,13.81
2019-05-02T18:16:21.721Z,13.71
2019-05-02T18:18:14.114Z,13.67
2019-05-02T18:19:16.022Z,13.67
2019-05-02T18:21:07.050Z,13.73
2019-05-02T18:22:14.867Z,13.67
2019-05-02T18:24:04.468Z,13.67
2019-05-02T18:25:01.817Z,13.78
2019-05-02T18:26:52.887Z,13.77
2019-05-02T18:27:52.867Z,13.70
2019-05-02T18:29:45.829Z,13.71
2019-05-02T18:30:45.795Z,13.78
2019-05-02T18:32:38.703Z,13.64
2019-05-02T18:33:41.126Z,13.67
2019-05-02T18:35:32.547Z,13.69
2019-05-02T18:36:32.049Z,13.60
2019-05-02T18:38:24.543Z,13.69
2019-05-02T18:39:24.550Z,13.60
2019-05-02T18:41:17.603Z,13.60
2019-05-02T18:42:21.921Z,13.54